createdAt,value
2018-09-26T00:01:08.022Z,2.40
2018-09-26T00:03:41.130Z,2.10
2018-09-26T00:06:09.730Z,2.70
2018-09-26T00:08:38.198Z,2.40
2018-09-26T00:11:06.917Z,2.87
2018-09-26T00:13:36.257Z,2.50
2018-09-26T00:16:04.714Z,2.63
2018-09-26T00:18:33.255Z,2.40
2018-09-26T00:21:02.855Z,2.30
2018-09-26T00:23:31.761Z,2.73
2018-09-26T00:26:00.202Z,2.70
2018-09-26T00:28:28.686Z,3.20
2018-09-26T00:30:57.281Z,2.50
2018-09-26T00:33:25.781Z,2.50
2018-09-26T00:35:54.481Z,2.43
2018-09-26T00:38:23.550Z,2.60
2018-09-26T00:40:53.046Z,2.73
2018-09-26T00:43:21.475Z,2.77
2018-09-26T00:45:49.935Z,2.67
2018-09-26T00:48:18.425Z,2.20
2018-09-26T00:50:46.954Z,2.83
2018-09-26T00:53:15.454Z,2.57
2018-09-26T00:55:44.401Z,2.00
2018-09-26T00:58:12.802Z,2.40
2018-09-26T01:00:41.230Z,2.30
2018-09-26T01:03:10.358Z,2.37
2018-09-26T01:05:39.829Z,2.90
2018-09-26T01:08:08.324Z,2.10
2018-09-26T01:10:36.723Z,2.40
2018-09-26T01:13:05.167Z,2.30
2018-09-26T01:15:33.877Z,2.37
2018-09-26T01:18:02.316Z,2.40
2018-09-26T01:20:31.214Z,2.40
2018-09-26T01:22:59.817Z,2.17
2018-09-26T01:25:28.302Z,2.27
2018-09-26T01:27:57.183Z,2.23
2018-09-26T01:30:25.881Z,2.03
2018-09-26T01:32:54.333Z,2.10
2018-09-26T01:35:22.844Z,2.53
2018-09-26T01:37:51.299Z,2.37
2018-09-26T01:40:19.770Z,2.27
2018-09-26T01:42:48.485Z,2.30
2018-09-26T01:45:17.618Z,2.40
2018-09-26T01:47:46.670Z,2.87
2018-09-26T01:50:15.252Z,2.00
2018-09-26T01:52:43.829Z,2.40
2018-09-26T01:55:12.299Z,2.17
2018-09-26T01:57:40.789Z,2.67
2018-09-26T02:00:10.316Z,2.47
2018-09-26T02:02:38.893Z,2.20
2018-09-26T02:05:07.745Z,2.10
2018-09-26T02:07:36.389Z,2.40
2018-09-26T02:10:05.490Z,2.63
2018-09-26T02:12:33.958Z,2.20
2018-09-26T02:15:02.701Z,2.50
2018-09-26T02:17:31.486Z,2.53
2018-09-26T02:20:00.612Z,2.87
2018-09-26T02:22:29.113Z,2.37
2018-09-26T02:24:57.737Z,2.40
2018-09-26T02:27:26.700Z,2.40
2018-09-26T02:29:55.402Z,2.63
2018-09-26T02:32:23.853Z,2.20
2018-09-26T02:34:52.313Z,2.60
2018-09-26T02:37:21.113Z,2.67
2018-09-26T02:39:49.523Z,2.57
2018-09-26T02:42:18.148Z,2.07
2018-09-26T02:44:46.858Z,2.37
2018-09-26T02:47:15.297Z,2.90
2018-09-26T02:49:45.129Z,2.30
2018-09-26T02:52:13.854Z,4.27
2018-09-26T02:54:42.400Z,3.97
2018-09-26T02:57:11.392Z,3.27
2018-09-26T02:59:39.768Z,2.60
2018-09-26T03:02:08.276Z,2.10
2018-09-26T03:04:36.766Z,2.30
2018-09-26T03:07:05.240Z,2.30
2018-09-26T03:09:33.683Z,2.20
2018-09-26T03:12:02.142Z,2.37
2018-09-26T03:14:31.229Z,2.17
2018-09-26T03:16:59.738Z,2.60
2018-09-26T03:19:28.202Z,2.13
2018-09-26T03:21:57.541Z,2.50
2018-09-26T03:24:26.060Z,2.57
2018-09-26T03:26:54.422Z,2.20
2018-09-26T03:29:22.867Z,2.40
2018-09-26T03:31:51.303Z,2.30
2018-09-26T03:34:19.765Z,2.40
2018-09-26T03:36:48.238Z,2.60
2018-09-26T03:39:16.773Z,2.90
2018-09-26T03:41:45.232Z,2.33
2018-09-26T03:44:13.695Z,2.73
2018-09-26T03:46:42.104Z,2.40
2018-09-26T03:49:10.514Z,2.27
2018-09-26T03:51:39.661Z,2.73
2018-09-26T03:54:08.274Z,2.30
2018-09-26T03:56:37.975Z,2.30
2018-09-26T03:59:06.794Z,2.63
2018-09-26T04:01:35.219Z,2.40
2018-09-26T04:04:03.709Z,2.20
2018-09-26T04:06:32.194Z,2.20
2018-09-26T04:09:00.733Z,2.17
2018-09-26T04:11:29.583Z,2.97
2018-09-26T04:13:58.351Z,2.90
2018-09-26T04:16:26.952Z,2.60
2018-09-26T04:18:55.415Z,2.20
2018-09-26T04:21:23.958Z,2.83
2018-09-26T04:23:52.433Z,2.77
2018-09-26T04:26:20.953Z,2.70
2018-09-26T04:28:49.338Z,2.90
2018-09-26T04:31:17.799Z,2.33
2018-09-26T04:33:46.272Z,2.73
2018-09-26T04:36:14.851Z,2.63
2018-09-26T04:38:43.680Z,2.67
2018-09-26T04:41:12.523Z,2.23
2018-09-26T04:43:41.079Z,2.57
2018-09-26T04:46:09.541Z,2.67
2018-09-26T04:48:38.169Z,2.23
2018-09-26T04:51:06.667Z,2.83
2018-09-26T04:53:35.300Z,2.60
2018-09-26T04:56:03.838Z,3.07
2018-09-26T04:58:32.268Z,2.63
2018-09-26T05:01:00.866Z,2.67
2018-09-26T05:03:29.549Z,2.97
2018-09-26T05:05:58.097Z,2.47
2018-09-26T05:08:26.724Z,2.87
2018-09-26T05:10:55.219Z,2.83
2018-09-26T05:13:23.805Z,2.43
2018-09-26T05:15:52.249Z,2.80
2018-09-26T05:18:20.671Z,3.10
2018-09-26T05:20:49.142Z,2.70
2018-09-26T05:23:17.615Z,3.00
2018-09-26T05:25:47.023Z,2.80
2018-09-26T05:28:15.497Z,3.07
2018-09-26T05:30:44.058Z,2.67
2018-09-26T05:33:12.557Z,3.17
2018-09-26T05:35:41.033Z,2.47
2018-09-26T05:38:09.665Z,2.73
2018-09-26T05:40:38.910Z,2.57
2018-09-26T05:43:07.788Z,2.73
2018-09-26T05:45:36.368Z,3.10
2018-09-26T05:48:04.906Z,2.53
2018-09-26T05:50:33.319Z,2.60
2018-09-26T05:53:01.755Z,1.93
2018-09-26T05:55:30.234Z,2.53
2018-09-26T05:57:59.227Z,2.60
2018-09-26T06:00:28.353Z,2.73
2018-09-26T06:02:56.860Z,2.40
2018-09-26T06:05:25.381Z,2.60
2018-09-26T06:07:53.955Z,2.40
2018-09-26T06:10:22.439Z,2.17
2018-09-26T06:12:50.972Z,2.00
2018-09-26T06:15:19.361Z,2.30
2018-09-26T06:17:47.791Z,2.53
2018-09-26T06:20:16.306Z,2.57
2018-09-26T06:22:44.779Z,2.20
2018-09-26T06:25:13.253Z,2.10
2018-09-26T06:27:41.596Z,2.10
2018-09-26T06:30:10.280Z,2.20
2018-09-26T06:32:39.101Z,2.40
2018-09-26T06:35:08.078Z,2.13
2018-09-26T06:37:36.607Z,2.40
2018-09-26T06:40:05.228Z,2.53
2018-09-26T06:42:33.683Z,2.30
2018-09-26T06:45:02.133Z,2.40
2018-09-26T06:47:30.998Z,2.53
2018-09-26T06:49:59.390Z,2.50
2018-09-26T06:52:27.841Z,3.00
2018-09-26T06:54:56.281Z,3.43
2018-09-26T06:57:24.726Z,3.43
2018-09-26T06:59:53.268Z,3.00
2018-09-26T07:02:21.770Z,3.53
2018-09-26T07:04:50.181Z,2.57
2018-09-26T07:07:18.654Z,3.00
2018-09-26T07:09:47.154Z,2.30
2018-09-26T07:12:15.784Z,2.23
2018-09-26T07:14:44.153Z,2.20
2018-09-26T07:17:12.878Z,1.80
2018-09-26T07:19:41.384Z,2.30
2018-09-26T07:22:10.064Z,2.23
2018-09-26T07:24:38.571Z,2.47
2018-09-26T07:27:06.992Z,2.30
2018-09-26T07:29:35.415Z,1.93
2018-09-26T07:32:03.902Z,1.53
2018-09-26T07:34:39.536Z,2.00
2018-09-26T07:37:08.609Z,2.20
2018-09-26T07:39:38.064Z,2.27
2018-09-26T07:42:06.755Z,2.17
2018-09-26T07:44:35.289Z,1.70
2018-09-26T07:47:03.718Z,1.77
2018-09-26T07:49:32.150Z,1.70
2018-09-26T07:52:00.614Z,1.60
2018-09-26T07:54:29.092Z,2.07
2018-09-26T07:56:57.537Z,1.80
2018-09-26T07:59:25.967Z,1.80
2018-09-26T08:01:54.509Z,1.80
2018-09-26T08:04:23.022Z,2.03
2018-09-26T08:06:51.603Z,1.53
2018-09-26T08:09:20.927Z,1.50
2018-09-26T08:11:49.455Z,2.27
2018-09-26T08:14:17.814Z,1.97
2018-09-26T08:16:46.290Z,1.70
2018-09-26T08:19:14.771Z,1.63
2018-09-26T08:21:43.218Z,1.80
2018-09-26T08:24:11.697Z,2.00
2018-09-26T08:29:19.553Z,2.00
2018-09-26T08:31:48.171Z,1.70
2018-09-26T08:34:16.597Z,2.23
2018-09-26T08:36:45.222Z,2.30
2018-09-26T08:39:14.703Z,2.00
2018-09-26T08:41:43.151Z,2.33
2018-09-26T08:44:12.022Z,3.03
2018-09-26T08:46:40.728Z,2.67
2018-09-26T08:49:09.296Z,2.47
2018-09-26T08:51:37.947Z,2.07
2018-09-26T08:54:06.418Z,2.00
2018-09-26T08:56:34.970Z,1.53
2018-09-26T08:59:03.509Z,1.77
2018-09-26T09:01:48.761Z,1.50
2018-09-26T09:04:18.474Z,1.40
2018-09-26T09:06:47.245Z,1.47
2018-09-26T09:09:16.235Z,1.30
2018-09-26T09:11:44.706Z,1.40
2018-09-26T09:14:13.123Z,1.60
2018-09-26T09:16:41.541Z,1.47
2018-09-26T09:19:10.058Z,1.50
2018-09-26T09:21:39.250Z,1.20
2018-09-26T09:24:08.425Z,1.73
2018-09-26T09:26:36.933Z,1.43
2018-09-26T09:29:05.687Z,1.70
2018-09-26T09:31:34.146Z,1.60
2018-09-26T09:34:02.627Z,1.30
2018-09-26T09:36:31.180Z,1.60
2018-09-26T09:38:59.581Z,1.90
2018-09-26T09:41:28.090Z,1.17
2018-09-26T09:43:56.622Z,1.30
2018-09-26T09:46:25.043Z,1.53
2018-09-26T09:48:53.484Z,1.37
2018-09-26T09:51:21.991Z,1.60
2018-09-26T09:53:50.547Z,1.70
2018-09-26T09:56:19.020Z,1.60
2018-09-26T09:58:47.419Z,1.30
2018-09-26T10:01:21.112Z,1.27
2018-09-26T10:03:49.659Z,1.30
2018-09-26T10:06:18.439Z,1.43
2018-09-26T10:08:47.273Z,1.77
2018-09-26T10:11:15.658Z,1.30
2018-09-26T10:13:44.610Z,1.53
2018-09-26T10:16:13.187Z,1.20
2018-09-26T10:18:41.725Z,1.77
2018-09-26T10:21:10.217Z,1.30
2018-09-26T10:23:38.677Z,1.30
2018-09-26T10:26:07.861Z,1.50
2018-09-26T10:28:36.387Z,1.57
2018-09-26T10:31:04.847Z,1.57
2018-09-26T10:33:33.394Z,1.47
2018-09-26T10:36:01.813Z,1.67
2018-09-26T10:38:30.213Z,1.40
2018-09-26T10:40:58.696Z,1.67
2018-09-26T10:43:27.154Z,1.40
2018-09-26T10:45:55.753Z,1.40
2018-09-26T10:48:24.240Z,1.60
2018-09-26T10:50:52.798Z,1.50
2018-09-26T10:53:21.279Z,1.70
2018-09-26T10:55:50.411Z,1.30
2018-09-26T10:58:19.789Z,1.67
2018-09-26T11:00:48.307Z,1.77
2018-09-26T11:03:17.050Z,1.53
2018-09-26T11:05:46.071Z,1.63
2018-09-26T11:08:14.580Z,1.30
2018-09-26T11:10:42.947Z,1.33
2018-09-26T11:13:11.305Z,1.93
2018-09-26T11:15:39.914Z,1.67
2018-09-26T11:18:08.304Z,1.40
2018-09-26T11:20:36.774Z,1.50
2018-09-26T11:23:05.315Z,1.70
2018-09-26T11:25:33.791Z,1.87
2018-09-26T11:28:02.231Z,1.40
2018-09-26T11:30:30.770Z,1.90
2018-09-26T11:32:59.236Z,1.33
2018-09-26T11:35:28.077Z,1.90
2018-09-26T11:37:56.578Z,1.20
2018-09-26T11:40:25.075Z,1.60
2018-09-26T11:42:53.527Z,1.80
2018-09-26T11:45:22.375Z,1.73
2018-09-26T11:47:50.807Z,1.40
2018-09-26T11:50:19.356Z,1.47
2018-09-26T11:52:47.881Z,1.30
2018-09-26T11:55:16.364Z,1.23
2018-09-26T11:57:46.385Z,1.40
2018-09-26T12:00:14.848Z,1.53
2018-09-26T12:02:43.444Z,1.87
2018-09-26T12:05:11.922Z,1.63
2018-09-26T12:07:40.410Z,1.30
2018-09-26T12:10:09.023Z,1.43
2018-09-26T12:12:37.717Z,1.90
2018-09-26T12:15:06.225Z,1.57
2018-09-26T12:17:34.645Z,1.47
2018-09-26T12:20:03.124Z,1.23
2018-09-26T12:22:31.710Z,1.23
2018-09-26T12:25:00.242Z,1.67
2018-09-26T12:27:28.710Z,1.17
2018-09-26T12:29:57.127Z,1.50
2018-09-26T12:32:25.638Z,1.20
2018-09-26T12:34:54.420Z,1.87
2018-09-26T12:37:22.964Z,1.43
2018-09-26T12:39:51.452Z,1.83
2018-09-26T12:42:20.076Z,1.67
2018-09-26T12:44:48.513Z,1.40
2018-09-26T12:47:17.043Z,1.73
2018-09-26T12:49:45.489Z,1.60
2018-09-26T12:52:14.130Z,1.87
2018-09-26T12:54:42.617Z,1.73
2018-09-26T12:57:11.305Z,1.70
2018-09-26T12:59:39.759Z,1.20
2018-09-26T13:02:08.319Z,1.27
2018-09-26T13:04:36.915Z,1.13
2018-09-26T13:07:05.465Z,1.20
2018-09-26T13:09:33.925Z,1.30
2018-09-26T13:12:02.509Z,1.57
2018-09-26T13:14:30.949Z,1.37
2018-09-26T13:16:59.448Z,1.57
2018-09-26T13:19:27.926Z,1.10
2018-09-26T13:21:56.365Z,1.70
2018-09-26T13:24:24.935Z,1.30
2018-09-26T13:26:53.433Z,1.50
2018-09-26T13:29:22.609Z,1.30
2018-09-26T13:31:51.489Z,1.13
2018-09-26T13:34:20.504Z,1.10
2018-09-26T13:36:48.903Z,1.27
2018-09-26T13:39:17.321Z,1.20
2018-09-26T13:41:46.053Z,1.50
2018-09-26T13:44:14.600Z,1.23
2018-09-26T13:46:43.039Z,1.33
2018-09-26T13:49:11.497Z,1.50
2018-09-26T13:51:39.943Z,1.37
2018-09-26T13:54:08.449Z,1.60
2018-09-26T13:56:36.914Z,1.70
2018-09-26T13:59:05.398Z,1.40
2018-09-26T14:01:34.630Z,1.40
2018-09-26T14:04:03.265Z,1.47
2018-09-26T14:06:32.757Z,1.77
2018-09-26T14:09:01.295Z,1.40
2018-09-26T14:11:29.880Z,1.50
2018-09-26T14:13:58.483Z,1.40
2018-09-26T14:16:27.057Z,1.00
2018-09-26T14:18:55.581Z,1.10
2018-09-26T14:21:24.440Z,1.60
2018-09-26T14:23:53.090Z,1.60
2018-09-26T14:26:21.791Z,1.47
2018-09-26T14:28:50.848Z,0.90
2018-09-26T14:31:20.069Z,1.67
2018-09-26T14:33:48.631Z,1.30
2018-09-26T14:36:17.319Z,1.47
2018-09-26T14:38:45.770Z,1.20
2018-09-26T14:41:14.388Z,1.20
2018-09-26T14:43:42.805Z,1.60
2018-09-26T14:46:11.328Z,1.20
2018-09-26T14:48:40.583Z,1.20
2018-09-26T14:51:09.487Z,1.37
2018-09-26T14:53:38.163Z,1.53
2018-09-26T14:56:06.850Z,1.53
2018-09-26T14:58:35.973Z,1.43
2018-09-26T15:01:04.650Z,1.57
2018-09-26T15:03:33.468Z,1.10
2018-09-26T15:06:01.886Z,1.37
2018-09-26T15:08:30.586Z,1.27
2018-09-26T15:10:58.950Z,1.40
2018-09-26T15:13:27.401Z,1.57
2018-09-26T15:15:55.914Z,1.50
2018-09-26T15:18:24.572Z,1.40
2018-09-26T15:21:00.117Z,1.63
2018-09-26T15:23:28.716Z,1.13
2018-09-26T15:25:57.853Z,1.10
2018-09-26T15:28:26.367Z,1.20
2018-09-26T15:30:54.771Z,1.27
2018-09-26T15:33:23.590Z,1.40
2018-09-26T15:35:52.171Z,1.10
2018-09-26T15:38:20.692Z,1.03
2018-09-26T15:40:49.223Z,1.00
2018-09-26T15:43:18.403Z,1.27
2018-09-26T15:45:47.330Z,1.20
2018-09-26T15:48:15.842Z,1.23
2018-09-26T15:50:44.470Z,1.30
2018-09-26T15:53:13.724Z,1.20
2018-09-26T15:55:42.238Z,1.30
2018-09-26T15:58:10.764Z,1.10
2018-09-26T16:00:39.672Z,1.37
2018-09-26T16:03:08.268Z,1.27
2018-09-26T16:05:37.090Z,1.20
2018-09-26T16:08:05.604Z,1.10
2018-09-26T16:10:33.981Z,0.90
2018-09-26T16:13:02.451Z,1.00
2018-09-26T16:15:32.418Z,1.33
2018-09-26T16:18:00.941Z,1.77
2018-09-26T16:20:29.389Z,1.30
2018-09-26T16:22:57.747Z,1.60
2018-09-26T16:25:26.245Z,1.30
2018-09-26T16:27:54.578Z,1.20
2018-09-26T16:30:23.109Z,1.10
2018-09-26T16:32:52.618Z,1.30
2018-09-26T16:35:23.506Z,1.23
2018-09-26T16:37:53.715Z,1.20
2018-09-26T16:40:22.479Z,1.50
2018-09-26T16:42:51.601Z,1.20
2018-09-26T16:45:20.668Z,1.30
2018-09-26T16:47:49.788Z,1.40
2018-09-26T16:50:20.000Z,1.33
2018-09-26T16:52:49.331Z,1.30
2018-09-26T16:55:20.311Z,1.37
2018-09-26T16:57:52.357Z,1.57
2018-09-26T17:00:21.161Z,1.57
2018-09-26T17:02:53.313Z,1.53
2018-09-26T17:05:21.912Z,1.50
2018-09-26T17:07:50.860Z,1.30
2018-09-26T17:10:20.874Z,1.47
2018-09-26T17:12:50.069Z,1.50
2018-09-26T17:15:19.938Z,1.73
2018-09-26T17:17:49.650Z,2.07
2018-09-26T17:20:18.252Z,1.60
2018-09-26T17:22:47.037Z,1.60
2018-09-26T17:25:15.626Z,1.63
2018-09-26T17:27:44.115Z,1.90
2018-09-26T17:30:12.633Z,1.30
2018-09-26T17:32:41.221Z,1.63
2018-09-26T17:35:09.681Z,1.77
2018-09-26T17:37:38.319Z,1.80
2018-09-26T17:40:08.765Z,1.60
2018-09-26T17:42:37.720Z,1.93
2018-09-26T17:45:07.389Z,1.80
2018-09-26T17:47:37.219Z,1.60
2018-09-26T17:50:05.630Z,1.53
2018-09-26T17:52:34.369Z,1.73
2018-09-26T17:55:02.999Z,1.70
2018-09-26T17:57:32.052Z,2.30
2018-09-26T18:00:01.224Z,1.83
2018-09-26T18:02:29.998Z,2.03
2018-09-26T18:04:58.828Z,2.33
2018-09-26T18:07:27.753Z,1.97
2018-09-26T18:09:56.923Z,2.17
2018-09-26T18:12:27.553Z,1.93
2018-09-26T18:14:56.478Z,2.00
2018-09-26T18:17:25.952Z,1.60
2018-09-26T18:19:54.561Z,1.67
2018-09-26T18:22:23.537Z,1.90
2018-09-26T18:24:52.617Z,2.33
2018-09-26T18:27:21.674Z,2.33
2018-09-26T18:29:51.233Z,2.13
2018-09-26T18:32:19.957Z,1.90
2018-09-26T18:34:48.628Z,2.20
2018-09-26T18:37:17.564Z,1.97
2018-09-26T18:39:46.962Z,1.80
2018-09-26T18:42:15.500Z,2.10
2018-09-26T18:44:45.120Z,2.00
2018-09-26T18:47:14.950Z,2.20
2018-09-26T18:49:44.635Z,2.10
2018-09-26T18:52:13.208Z,1.53
2018-09-26T18:54:42.582Z,1.50
2018-09-26T18:57:11.490Z,2.37
2018-09-26T18:59:39.939Z,1.50
2018-09-26T19:02:08.874Z,1.63
2018-09-26T19:04:38.023Z,1.70
2018-09-26T19:07:07.419Z,1.80
2018-09-26T19:09:36.156Z,1.47
2018-09-26T19:12:05.817Z,1.50
2018-09-26T19:14:34.606Z,1.50
2018-09-26T19:17:03.633Z,1.50
2018-09-26T19:19:32.854Z,1.60
2018-09-26T19:22:02.758Z,1.60
2018-09-26T19:24:31.765Z,1.63
2018-09-26T19:27:00.623Z,1.90
2018-09-26T19:29:29.902Z,1.70
2018-09-26T19:31:58.948Z,1.70
2018-09-26T19:34:27.933Z,1.63
2018-09-26T19:36:57.205Z,1.53
2018-09-26T19:39:26.638Z,1.20
2018-09-26T19:41:55.347Z,1.50
2018-09-26T19:44:25.144Z,1.80
2018-09-26T19:46:54.995Z,1.40
2018-09-26T19:49:25.169Z,1.60
2018-09-26T19:51:54.391Z,1.40
2018-09-26T19:54:23.609Z,1.83
2018-09-26T19:56:52.882Z,1.67
2018-09-26T19:59:21.675Z,1.70
2018-09-26T20:01:50.993Z,1.80
2018-09-26T20:04:20.488Z,1.97
2018-09-26T20:06:49.651Z,1.70
2018-09-26T20:09:18.190Z,1.70
2018-09-26T20:11:46.824Z,1.90
2018-09-26T20:14:15.359Z,2.03
2018-09-26T20:16:44.085Z,1.97
2018-09-26T20:19:12.758Z,1.70
2018-09-26T20:21:41.385Z,1.40
2018-09-26T20:24:10.128Z,2.00
2018-09-26T20:26:38.797Z,1.97
2018-09-26T20:29:07.711Z,1.50
2018-09-26T20:31:36.650Z,1.83
2018-09-26T20:34:05.541Z,1.80
2018-09-26T20:36:34.625Z,1.40
2018-09-26T20:39:03.449Z,1.40
2018-09-26T20:41:32.110Z,1.63
2018-09-26T20:44:00.648Z,1.87
2018-09-26T20:46:29.373Z,1.50
2018-09-26T20:48:58.090Z,1.70
2018-09-26T20:51:26.846Z,1.40
2018-09-26T20:53:55.545Z,1.43
2018-09-26T20:56:24.319Z,1.40
2018-09-26T20:58:52.825Z,1.30
2018-09-26T21:01:21.514Z,1.20
2018-09-26T21:03:50.179Z,1.50
2018-09-26T21:06:18.874Z,1.57
2018-09-26T21:08:47.343Z,1.57
2018-09-26T21:11:15.967Z,1.90
2018-09-26T21:13:44.549Z,1.40
2018-09-26T21:16:13.245Z,1.50
2018-09-26T21:18:42.346Z,1.47
2018-09-26T21:21:11.105Z,1.60
2018-09-26T21:23:39.667Z,1.63
2018-09-26T21:26:08.200Z,1.40
2018-09-26T21:28:37.501Z,1.70
2018-09-26T21:31:06.204Z,1.93
2018-09-26T21:33:34.786Z,1.63
2018-09-26T21:36:03.815Z,1.70
2018-09-26T21:38:32.458Z,1.53
2018-09-26T21:41:01.047Z,1.83
2018-09-26T21:43:29.669Z,1.93
2018-09-26T21:45:58.201Z,1.80
2018-09-26T21:48:26.903Z,1.97
2018-09-26T21:50:55.518Z,1.70
2018-09-26T21:53:24.061Z,1.70
2018-09-26T21:55:52.545Z,1.43
2018-09-26T21:58:21.098Z,1.77
2018-09-26T22:00:54.887Z,1.77
2018-09-26T22:03:23.418Z,1.60
2018-09-26T22:05:51.973Z,1.70
2018-09-26T22:08:20.774Z,1.50
2018-09-26T22:10:49.415Z,2.10
2018-09-26T22:13:18.019Z,1.90
2018-09-26T22:15:46.565Z,1.90
2018-09-26T22:18:15.173Z,1.90
2018-09-26T22:20:43.970Z,1.80
2018-09-26T22:23:12.578Z,1.90
2018-09-26T22:25:41.271Z,1.80
2018-09-26T22:28:09.962Z,1.80
2018-09-26T22:30:38.797Z,2.43
2018-09-26T22:33:07.458Z,1.83
2018-09-26T22:35:36.280Z,1.80
2018-09-26T22:38:04.944Z,1.80
2018-09-26T22:40:33.555Z,2.00
2018-09-26T22:43:02.099Z,1.90
2018-09-26T22:45:31.338Z,2.27
2018-09-26T22:47:59.962Z,1.90
2018-09-26T22:50:28.733Z,2.03
2018-09-26T22:52:57.358Z,2.00
2018-09-26T22:55:25.900Z,2.10
2018-09-26T22:57:54.706Z,2.43
2018-09-26T23:00:23.459Z,2.23
2018-09-26T23:02:52.056Z,1.97
2018-09-26T23:05:20.755Z,2.20
2018-09-26T23:07:49.357Z,2.10
2018-09-26T23:10:17.986Z,2.10
2018-09-26T23:12:46.913Z,2.50
2018-09-26T23:15:15.610Z,2.57
2018-09-26T23:17:44.193Z,2.60
2018-09-26T23:20:12.978Z,2.63
2018-09-26T23:22:41.758Z,2.43
2018-09-26T23:25:10.637Z,2.23
2018-09-26T23:27:39.145Z,2.47
2018-09-26T23:30:07.655Z,2.60
2018-09-26T23:32:36.303Z,2.90
2018-09-26T23:35:05.009Z,2.53
2018-09-26T23:37:33.676Z,2.90
2018-09-26T23:40:02.551Z,3.70
2018-09-26T23:42:31.770Z,3.23
2018-09-26T23:45:00.345Z,3.03
2018-09-26T23:47:28.989Z,3.40
2018-09-26T23:49:57.508Z,2.63
2018-09-26T23:52:26.211Z,3.00
2018-09-26T23:54:54.877Z,3.20
2018-09-26T23:57:23.398Z,3.30
2018-09-26T23:59:52.867Z,3.77
